Private Wetterstation Sandau
Wetterdaten: Samstag, 30.06.2012
Datum Zeit Temp. A. Feuchte A. Luftdruck Regen Wind Richtung Richtung Taupunkt Windchill
30.06.2012 00:01 20,9 C 83 % 1010,6 hPa 0,0 l/m 0,0 km/h (0 Bft) SW 225 17,9 C 20,9 C
30.06.2012 00:06 20,9 C 83 % 1010,7 hPa 0,0 l/m 0,0 km/h (0 Bft) SW 225 17,9 C 20,9 C
30.06.2012 00:11 20,9 C 83 % 1010,9 hPa 0,0 l/m 0,0 km/h (0 Bft) W-SW 247 17,9 C 20,9 C
30.06.2012 00:16 20,8 C 83 % 1010,9 hPa 0,0 l/m 0,0 km/h (0 Bft) W-SW 247 17,8 C 20,8 C
30.06.2012 00:21 20,8 C 83 % 1010,8 hPa 0,0 l/m 4,0 km/h (1 Bft) W-SW 247 17,8 C 20,8 C
30.06.2012 00:26 20,8 C 84 % 1010,7 hPa 0,0 l/m 0,0 km/h (0 Bft) SW 225 18,0 C 20,8 C
30.06.2012 00:31 20,8 C 84 % 1010,6 hPa 0,0 l/m 1,1 km/h (1 Bft) W 270 18,0 C 20,8 C
30.06.2012 00:36 20,7 C 84 % 1010,7 hPa 0,0 l/m 0,0 km/h (0 Bft) W 270 17,9 C 20,7 C
30.06.2012 00:41 20,6 C 84 % 1010,8 hPa 0,0 l/m 0,0 km/h (0 Bft) W 270 17,8 C 20,6 C
30.06.2012 00:46 20,5 C 84 % 1010,7 hPa 0,0 l/m 0,0 km/h (0 Bft) W-NW 292 17,7 C 20,5 C
30.06.2012 00:51 20,4 C 84 % 1010,7 hPa 0,0 l/m 0,0 km/h (0 Bft) W 270 17,6 C 20,4 C
30.06.2012 00:56 20,3 C 85 % 1010,9 hPa 0,0 l/m 0,0 km/h (0 Bft) W-NW 292 17,7 C 20,3 C
30.06.2012 01:01 20,2 C 85 % 1010,8 hPa 0,0 l/m 0,0 km/h (0 Bft) W-NW 292 17,6 C 20,2 C
30.06.2012 01:06 20,2 C 85 % 1010,9 hPa 0,0 l/m 1,1 km/h (1 Bft) W-NW 292 17,6 C 20,2 C
30.06.2012 01:11 20,2 C 85 % 1010,9 hPa 0,0 l/m 0,0 km/h (0 Bft) W-NW 292 17,6 C 20,2 C
30.06.2012 01:16 20,1 C 85 % 1010,9 hPa 0,0 l/m 1,4 km/h (1 Bft) W-NW 292 17,5 C 20,1 C
30.06.2012 01:21 20,1 C 85 % 1011,0 hPa 0,0 l/m 5,4 km/h (1 Bft) NW 315 17,5 C 20,1 C
30.06.2012 01:26 19,9 C 85 % 1011,0 hPa 0,0 l/m 2,2 km/h (1 Bft) N 360 17,3 C 19,9 C
30.06.2012 01:31 19,9 C 85 % 1010,9 hPa 0,5 l/m 3,2 km/h (1 Bft) N 360 17,3 C 19,9 C
30.06.2012 01:36 19,8 C 86 % 1011,0 hPa 0,0 l/m 1,4 km/h (1 Bft) W-NW 292 17,4 C 19,8 C
30.06.2012 01:41 19,8 C 86 % 1011,0 hPa 0,0 l/m 0,0 km/h (0 Bft) W-NW 292 17,4 C 19,8 C
30.06.2012 01:46 19,8 C 86 % 1011,1 hPa 0,0 l/m 2,5 km/h (1 Bft) W-NW 292 17,4 C 19,8 C
30.06.2012 01:51 19,8 C 86 % 1011,1 hPa 0,0 l/m 1,4 km/h (1 Bft) W-NW 292 17,4 C 19,8 C
30.06.2012 01:56 19,8 C 86 % 1011,2 hPa 0,0 l/m 4,0 km/h (1 Bft) W-NW 292 17,4 C 19,8 C
30.06.2012 02:01 19,8 C 86 % 1011,5 hPa 0,0 l/m 0,0 km/h (0 Bft) W 270 17,4 C 19,8 C
30.06.2012 02:06 19,8 C 86 % 1011,5 hPa 0,0 l/m 3,2 km/h (1 Bft) W-NW 292 17,4 C 19,8 C
30.06.2012 02:11 19,8 C 87 % 1011,6 hPa 0,0 l/m 2,5 km/h (1 Bft) W 270 17,6 C 19,8 C
30.06.2012 02:16 19,8 C 86 % 1011,6 hPa 0,0 l/m 2,9 km/h (1 Bft) W 270 17,4 C 19,8 C
30.06.2012 02:21 19,8 C 86 % 1011,6 hPa 0,0 l/m 2,9 km/h (1 Bft) W 270 17,4 C 19,8 C
30.06.2012 02:26 19,8 C 86 % 1011,8 hPa 0,0 l/m 0,0 km/h (0 Bft) W-NW 292 17,4 C 19,8 C
30.06.2012 02:31 19,9 C 86 % 1011,8 hPa 0,0 l/m 0,0 km/h (0 Bft) W 270 17,5 C 19,9 C
30.06.2012 02:36 19,9 C 86 % 1011,7 hPa 0,0 l/m 0,0 km/h (0 Bft) W 270 17,5 C 19,9 C
30.06.2012 02:41 19,9 C 86 % 1011,7 hPa 0,0 l/m 0,0 km/h (0 Bft) SW 225 17,5 C 19,9 C
30.06.2012 02:46 19,9 C 86 % 1011,8 hPa 0,0 l/m 0,0 km/h (0 Bft) S-SO 157 17,5 C 19,9 C
30.06.2012 02:51 19,9 C 86 % 1011,8 hPa 0,0 l/m 1,1 km/h (1 Bft) S-SO 157 17,5 C 19,9 C
30.06.2012 02:56 19,9 C 86 % 1011,8 hPa 0,0 l/m 1,1 km/h (1 Bft) S-SO 157 17,5 C 19,9 C
30.06.2012 03:01 20,0 C 86 % 1011,8 hPa 0,0 l/m 2,2 km/h (1 Bft) S-SO 157 17,6 C 20,0 C
30.06.2012 03:06 20,0 C 86 % 1012,0 hPa 0,0 l/m 3,2 km/h (1 Bft) S-SW 202 17,6 C 20,0 C
30.06.2012 03:11 19,9 C 86 % 1012,1 hPa 0,0 l/m 2,5 km/h (1 Bft) S-SW 202 17,5 C 19,9 C
30.06.2012 03:16 19,9 C 86 % 1012,1 hPa 0,0 l/m 0,0 km/h (0 Bft) S-SW 202 17,5 C 19,9 C
30.06.2012 03:21 19,9 C 86 % 1012,0 hPa 0,0 l/m 1,1 km/h (1 Bft) SW 225 17,5 C 19,9 C
30.06.2012 03:26 19,9 C 86 % 1012,0 hPa 0,0 l/m 1,1 km/h (1 Bft) S-SW 202 17,5 C 19,9 C
30.06.2012 03:31 19,9 C 86 % 1012,1 hPa 0,0 l/m 1,4 km/h (1 Bft) SW 225 17,5 C 19,9 C
30.06.2012 03:36 19,9 C 86 % 1012,1 hPa 0,0 l/m 2,2 km/h (1 Bft) W-SW 247 17,5 C 19,9 C
30.06.2012 03:41 19,9 C 86 % 1012,0 hPa 0,0 l/m 0,0 km/h (0 Bft) W-SW 247 17,5 C 19,9 C
30.06.2012 03:46 19,9 C 86 % 1012,0 hPa 0,0 l/m 0,0 km/h (0 Bft) SW 225 17,5 C 19,9 C
30.06.2012 03:51 19,9 C 86 % 1012,0 hPa 0,0 l/m 2,2 km/h (1 Bft) W-SW 247 17,5 C 19,9 C
30.06.2012 03:56 19,9 C 86 % 1012,0 hPa 0,0 l/m 1,4 km/h (1 Bft) S-SW 202 17,5 C 19,9 C
30.06.2012 04:01 19,8 C 86 % 1012,2 hPa 0,0 l/m 0,0 km/h (0 Bft) W-SW 247 17,4 C 19,8 C
30.06.2012 04:06 19,8 C 86 % 1012,2 hPa 0,0 l/m 1,8 km/h (1 Bft) W 270 17,4 C 19,8 C
30.06.2012 04:11 19,8 C 86 % 1012,2 hPa 0,0 l/m 4,0 km/h (1 Bft) W-SW 247 17,4 C 19,8 C
30.06.2012 04:16 19,6 C 86 % 1012,0 hPa 0,0 l/m 0,0 km/h (0 Bft) W-SW 247 17,2 C 19,6 C
30.06.2012 04:21 19,6 C 86 % 1012,0 hPa 0,0 l/m 0,0 km/h (0 Bft) W-SW 247 17,2 C 19,6 C
30.06.2012 04:26 19,5 C 86 % 1012,0 hPa 0,0 l/m 0,0 km/h (0 Bft) W-SW 247 17,1 C 19,5 C
30.06.2012 04:31 19,5 C 86 % 1011,9 hPa 0,0 l/m 0,0 km/h (0 Bft) W-SW 247 17,1 C 19,5 C
30.06.2012 04:36 19,5 C 86 % 1011,9 hPa 0,0 l/m 0,0 km/h (0 Bft) W-SW 247 17,1 C 19,5 C
30.06.2012 04:41 19,4 C 86 % 1011,8 hPa 0,0 l/m 1,8 km/h (1 Bft) W-SW 247 17,0 C 19,4 C
30.06.2012 04:46 19,4 C 86 % 1011,8 hPa 0,0 l/m 2,2 km/h (1 Bft) W-SW 247 17,0 C 19,4 C
30.06.2012 04:51 19,4 C 86 % 1011,8 hPa 0,0 l/m 1,4 km/h (1 Bft) W 270 17,0 C 19,4 C
30.06.2012 04:56 19,3 C 86 % 1011,9 hPa 0,0 l/m 2,5 km/h (1 Bft) W 270 16,9 C 19,3 C
30.06.2012 05:01 19,3 C 86 % 1011,8 hPa 0,0 l/m 2,5 km/h (1 Bft) W-SW 247 16,9 C 19,3 C
30.06.2012 05:06 19,3 C 86 % 1011,9 hPa 0,0 l/m 0,0 km/h (0 Bft) W 270 16,9 C 19,3 C
30.06.2012 05:11 19,2 C 86 % 1011,9 hPa 0,0 l/m 1,4 km/h (1 Bft) W-SW 247 16,8 C 19,2 C
30.06.2012 05:16 19,2 C 86 % 1011,9 hPa 0,0 l/m 3,6 km/h (1 Bft) W 270 16,8 C 19,2 C
30.06.2012 05:21 19,1 C 86 % 1011,9 hPa 0,0 l/m 2,5 km/h (1 Bft) W 270 16,7 C 19,1 C
30.06.2012 05:26 18,9 C 86 % 1011,9 hPa 0,0 l/m 5,0 km/h (1 Bft) SW 225 16,5 C 18,9 C
30.06.2012 05:31 18,9 C 86 % 1012,0 hPa 0,0 l/m 2,2 km/h (1 Bft) W 270 16,5 C 18,9 C
30.06.2012 05:36 18,9 C 86 % 1012,0 hPa 0,0 l/m 2,5 km/h (1 Bft) W-NW 292 16,5 C 18,9 C
30.06.2012 05:41 18,9 C 86 % 1012,0 hPa 0,0 l/m 2,5 km/h (1 Bft) W 270 16,5 C 18,9 C
30.06.2012 05:46 18,9 C 87 % 1012,0 hPa 0,0 l/m 2,9 km/h (1 Bft) W 270 16,7 C 18,9 C
30.06.2012 05:51 18,9 C 87 % 1011,9 hPa 0,0 l/m 1,4 km/h (1 Bft) W-NW 292 16,7 C 18,9 C
30.06.2012 05:56 18,9 C 87 % 1012,1 hPa 0,0 l/m 5,0 km/h (1 Bft) W-NW 292 16,7 C 18,9 C
30.06.2012 06:01 18,9 C 87 % 1012,1 hPa 0,0 l/m 5,0 km/h (1 Bft) W-NW 292 16,7 C 18,9 C
30.06.2012 06:06 18,8 C 87 % 1012,1 hPa 0,0 l/m 2,2 km/h (1 Bft) W 270 16,6 C 18,8 C
30.06.2012 06:11 18,8 C 87 % 1012,4 hPa 0,0 l/m 4,3 km/h (1 Bft) W-SW 247 16,6 C 18,8 C
30.06.2012 06:16 18,8 C 87 % 1012,5 hPa 0,0 l/m 3,2 km/h (1 Bft) W 270 16,6 C 18,8 C
30.06.2012 06:21 18,9 C 87 % 1012,6 hPa 0,0 l/m 4,3 km/h (1 Bft) W 270 16,7 C 18,9 C
30.06.2012 06:26 18,9 C 87 % 1012,6 hPa 0,0 l/m 8,3 km/h (2 Bft) W 270 16,7 C 18,9 C
30.06.2012 06:31 18,9 C 87 % 1012,7 hPa 0,0 l/m 5,8 km/h (2 Bft) W-SW 247 16,7 C 18,9 C
30.06.2012 06:36 19,0 C 87 % 1012,9 hPa 0,0 l/m 6,8 km/h (2 Bft) W-SW 247 16,8 C 19,0 C
30.06.2012 06:41 19,1 C 87 % 1012,9 hPa 0,0 l/m 4,7 km/h (1 Bft) W 270 16,9 C 19,1 C
30.06.2012 06:46 19,0 C 87 % 1013,0 hPa 0,0 l/m 5,8 km/h (2 Bft) SW 225 16,8 C 19,0 C
30.06.2012 06:51 19,1 C 87 % 1012,9 hPa 0,0 l/m 6,8 km/h (2 Bft) SW 225 16,9 C 19,1 C
30.06.2012 06:56 19,1 C 87 % 1012,8 hPa 0,0 l/m 10,4 km/h (2 Bft) W-SW 247 16,9 C 19,1 C
30.06.2012 07:01 19,2 C 87 % 1012,9 hPa 0,0 l/m 5,4 km/h (1 Bft) W-SW 247 17,0 C 19,2 C
30.06.2012 07:06 19,3 C 87 % 1012,9 hPa 0,0 l/m 4,0 km/h (1 Bft) W-SW 247 17,1 C 19,3 C
30.06.2012 07:11 19,3 C 87 % 1012,9 hPa 0,0 l/m 3,6 km/h (1 Bft) W-SW 247 17,1 C 19,3 C
30.06.2012 07:16 19,4 C 87 % 1012,9 hPa 0,0 l/m 4,7 km/h (1 Bft) W-NW 292 17,2 C 19,4 C
30.06.2012 07:21 19,5 C 86 % 1013,0 hPa 0,0 l/m 4,0 km/h (1 Bft) W 270 17,1 C 19,5 C
30.06.2012 07:26 19,7 C 87 % 1013,3 hPa 0,0 l/m 2,9 km/h (1 Bft) NW 315 17,5 C 19,7 C
30.06.2012 07:31 19,8 C 86 % 1013,4 hPa 0,0 l/m 2,9 km/h (1 Bft) W 270 17,4 C 19,8 C
30.06.2012 07:36 19,8 C 86 % 1013,6 hPa 0,0 l/m 0,0 km/h (0 Bft) W-NW 292 17,4 C 19,8 C
30.06.2012 07:41 19,8 C 85 % 1013,7 hPa 0,0 l/m 10,1 km/h (2 Bft) W-SW 247 17,2 C 19,8 C
30.06.2012 07:46 19,8 C 85 % 1013,7 hPa 0,0 l/m 4,0 km/h (1 Bft) W 270 17,2 C 19,8 C
30.06.2012 07:51 19,8 C 85 % 1013,7 hPa 0,0 l/m 4,7 km/h (1 Bft) W 270 17,2 C 19,8 C
30.06.2012 07:56 19,9 C 85 % 1013,7 hPa 0,0 l/m 9,4 km/h (2 Bft) SW 225 17,3 C 19,9 C
30.06.2012 08:01 20,3 C 85 % 1013,6 hPa 0,0 l/m 3,2 km/h (1 Bft) W-SW 247 17,7 C 20,3 C
30.06.2012 08:06 20,5 C 85 % 1013,7 hPa 0,0 l/m 7,2 km/h (2 Bft) W-SW 247 17,9 C 20,5 C
30.06.2012 08:11 20,7 C 83 % 1013,7 hPa 0,0 l/m 2,5 km/h (1 Bft) W-NW 292 17,7 C 20,7 C
30.06.2012 08:16 20,8 C 82 % 1013,8 hPa 0,0 l/m 4,7 km/h (1 Bft) SW 225 17,6 C 20,8 C
30.06.2012 08:21 20,8 C 82 % 1013,7 hPa 0,0 l/m 5,8 km/h (2 Bft) W 270 17,6 C 20,8 C
30.06.2012 08:26 20,8 C 82 % 1013,7 hPa 0,0 l/m 2,2 km/h (1 Bft) W-SW 247 17,6 C 20,8 C
30.06.2012 08:31 20,9 C 82 % 1013,8 hPa 0,0 l/m 4,0 km/h (1 Bft) W-NW 292 17,7 C 20,9 C
30.06.2012 08:36 20,9 C 81 % 1013,8 hPa 0,0 l/m 0,0 km/h (0 Bft) W-NW 292 17,5 C 20,9 C
30.06.2012 08:41 20,9 C 81 % 1013,8 hPa 0,0 l/m 0,0 km/h (0 Bft) W-SW 247 17,5 C 20,9 C
30.06.2012 08:46 20,9 C 81 % 1013,9 hPa 0,0 l/m 14,4 km/h (3 Bft) W 270 17,5 C 20,9 C
30.06.2012 08:51 20,9 C 82 % 1013,9 hPa 0,0 l/m 4,0 km/h (1 Bft) W 270 17,7 C 20,9 C
30.06.2012 08:56 20,9 C 81 % 1013,9 hPa 0,0 l/m 2,2 km/h (1 Bft) W-NW 292 17,5 C 20,9 C
30.06.2012 09:01 20,9 C 81 % 1014,0 hPa 0,0 l/m 7,6 km/h (2 Bft) W 270 17,5 C 20,9 C
30.06.2012 09:06 20,9 C 81 % 1014,1 hPa 0,0 l/m 12,2 km/h (2 Bft) W-NW 292 17,5 C 20,9 C
30.06.2012 09:11 20,9 C 81 % 1014,2 hPa 0,0 l/m 3,2 km/h (1 Bft) W 270 17,5 C 20,9 C
30.06.2012 09:16 20,9 C 81 % 1014,2 hPa 0,0 l/m 4,7 km/h (1 Bft) W 270 17,5 C 20,9 C
30.06.2012 09:21 21,2 C 81 % 1014,2 hPa 0,0 l/m 6,8 km/h (2 Bft) W-NW 292 17,8 C 21,2 C
30.06.2012 09:26 21,5 C 80 % 1014,2 hPa 0,0 l/m 4,7 km/h (1 Bft) W-NW 292 17,9 C 21,5 C
30.06.2012 09:31 21,8 C 80 % 1014,2 hPa 0,0 l/m 6,5 km/h (2 Bft) W-NW 292 18,2 C 21,8 C
30.06.2012 09:36 21,9 C 79 % 1014,2 hPa 0,0 l/m 5,8 km/h (2 Bft) W 270 18,1 C 21,9 C
30.06.2012 09:41 22,2 C 78 % 1014,2 hPa 0,0 l/m 4,3 km/h (1 Bft) W 270 18,2 C 22,2 C
30.06.2012 09:46 22,4 C 78 % 1014,2 hPa 0,0 l/m 4,7 km/h (1 Bft) W-NW 292 18,4 C 22,4 C
30.06.2012 09:51 22,6 C 77 % 1014,4 hPa 0,0 l/m 11,2 km/h (2 Bft) W-SW 247 18,4 C 22,6 C
30.06.2012 09:56 22,6 C 77 % 1014,5 hPa 0,0 l/m 2,5 km/h (1 Bft) W 270 18,4 C 22,6 C
30.06.2012 10:01 22,7 C 76 % 1014,5 hPa 0,0 l/m 11,2 km/h (2 Bft) W 270 18,2 C 22,7 C
30.06.2012 10:06 22,7 C 75 % 1014,6 hPa 0,0 l/m 10,8 km/h (2 Bft) W-NW 292 18,0 C 22,7 C
30.06.2012 10:11 22,6 C 76 % 1014,5 hPa 0,0 l/m 3,6 km/h (1 Bft) W 270 18,1 C 22,6 C
30.06.2012 10:16 22,6 C 76 % 1014,5 hPa 0,0 l/m 7,2 km/h (2 Bft) W-SW 247 18,1 C 22,6 C
30.06.2012 10:21 22,5 C 75 % 1014,5 hPa 0,0 l/m 7,6 km/h (2 Bft) W 270 17,8 C 22,5 C
30.06.2012 10:26 22,4 C 75 % 1014,5 hPa 0,0 l/m 1,8 km/h (1 Bft) W-SW 247 17,7 C 22,4 C
30.06.2012 10:31 22,5 C 75 % 1014,5 hPa 0,0 l/m 1,4 km/h (1 Bft) W-SW 247 17,8 C 22,5 C
30.06.2012 10:36 22,8 C 75 % 1014,5 hPa 0,0 l/m 3,6 km/h (1 Bft) NW 315 18,1 C 22,8 C
30.06.2012 10:41 23,1 C 75 % 1014,6 hPa 0,0 l/m 4,0 km/h (1 Bft) W-SW 247 18,4 C 23,1 C
30.06.2012 10:46 23,3 C 75 % 1014,6 hPa 0,0 l/m 0,0 km/h (0 Bft) SW 225 18,6 C 23,3 C
30.06.2012 10:51 23,6 C 74 % 1014,6 hPa 0,0 l/m 9,4 km/h (2 Bft) W-NW 292 18,7 C 23,6 C
30.06.2012 10:56 23,6 C 72 % 1014,6 hPa 0,0 l/m 2,5 km/h (1 Bft) SW 225 18,2 C 23,6 C
30.06.2012 11:01 23,6 C 71 % 1014,6 hPa 0,0 l/m 7,2 km/h (2 Bft) W-SW 247 18,0 C 23,6 C
30.06.2012 11:06 23,6 C 71 % 1014,5 hPa 0,0 l/m 9,4 km/h (2 Bft) SW 225 18,0 C 23,6 C
30.06.2012 11:11 23,8 C 71 % 1014,6 hPa 0,0 l/m 8,3 km/h (2 Bft) W 270 18,2 C 23,8 C
30.06.2012 11:16 23,8 C 70 % 1014,6 hPa 0,0 l/m 2,5 km/h (1 Bft) W 270 18,0 C 23,8 C
30.06.2012 11:21 23,8 C 70 % 1014,6 hPa 0,0 l/m 4,0 km/h (1 Bft) W-SW 247 18,0 C 23,8 C
30.06.2012 11:26 23,8 C 70 % 1014,4 hPa 0,0 l/m 2,5 km/h (1 Bft) NW 315 18,0 C 23,8 C
30.06.2012 11:31 23,8 C 69 % 1014,5 hPa 0,0 l/m 6,5 km/h (2 Bft) NW 315 17,8 C 23,8 C
30.06.2012 11:36 23,9 C 68 % 1014,6 hPa 0,0 l/m 3,2 km/h (1 Bft) N 360 17,6 C 23,9 C
30.06.2012 11:41 24,0 C 68 % 1014,4 hPa 0,0 l/m 4,0 km/h (1 Bft) W-SW 247 17,7 C 24,0 C
30.06.2012 11:46 24,3 C 67 % 1014,4 hPa 0,0 l/m 8,6 km/h (2 Bft) W-SW 247 17,8 C 24,3 C
30.06.2012 11:51 24,6 C 66 % 1014,4 hPa 0,0 l/m 8,6 km/h (2 Bft) O-SO 112 17,8 C 24,6 C
30.06.2012 11:56 24,9 C 65 % 1014,3 hPa 0,0 l/m 9,0 km/h (2 Bft) S 180 17,9 C 24,9 C
30.06.2012 12:01 25,1 C 64 % 1014,3 hPa 0,0 l/m 2,5 km/h (1 Bft) NW 315 17,8 C 25,1 C
30.06.2012 12:06 25,3 C 64 % 1014,4 hPa 0,0 l/m 7,6 km/h (2 Bft) S-SW 202 18,0 C 25,3 C
30.06.2012 12:11 25,4 C 63 % 1014,3 hPa 0,0 l/m 11,5 km/h (2 Bft) S-SW 202 17,8 C 25,4 C
30.06.2012 12:16 25,4 C 62 % 1014,3 hPa 0,0 l/m 5,4 km/h (1 Bft) S-SW 202 17,6 C 25,4 C
30.06.2012 12:21 25,3 C 62 % 1014,3 hPa 0,0 l/m 3,2 km/h (1 Bft) W-SW 247 17,5 C 25,3 C
30.06.2012 12:26 25,4 C 62 % 1014,3 hPa 0,0 l/m 4,7 km/h (1 Bft) S-SW 202 17,6 C 25,4 C
30.06.2012 12:31 25,6 C 62 % 1014,2 hPa 0,0 l/m 7,2 km/h (2 Bft) SW 225 17,8 C 25,6 C
30.06.2012 12:36 25,8 C 61 % 1014,4 hPa 0,0 l/m 6,1 km/h (2 Bft) W-NW 292 17,7 C 25,8 C
30.06.2012 12:41 25,8 C 60 % 1014,4 hPa 0,0 l/m 1,8 km/h (1 Bft) SW 225 17,4 C 25,8 C
30.06.2012 12:46 25,8 C 59 % 1014,3 hPa 0,0 l/m 10,4 km/h (2 Bft) SW 225 17,2 C 25,8 C
30.06.2012 12:51 25,9 C 58 % 1014,4 hPa 0,0 l/m 11,9 km/h (2 Bft) S 180 17,0 C 25,9 C
30.06.2012 12:56 25,9 C 58 % 1014,4 hPa 0,0 l/m 2,2 km/h (1 Bft) W 270 17,0 C 25,9 C
30.06.2012 13:01 25,9 C 58 % 1014,3 hPa 0,0 l/m 0,0 km/h (0 Bft) S-SW 202 17,0 C 25,9 C
30.06.2012 13:06 26,1 C 57 % 1014,2 hPa 0,0 l/m 9,0 km/h (2 Bft) W-SW 247 16,9 C 26,1 C
30.06.2012 13:11 26,2 C 56 % 1014,2 hPa 0,0 l/m 9,7 km/h (2 Bft) W-SW 247 16,7 C 26,2 C
30.06.2012 13:16 26,2 C 55 % 1014,0 hPa 0,0 l/m 3,2 km/h (1 Bft) W-SW 247 16,4 C 26,2 C
30.06.2012 13:21 26,4 C 55 % 1014,0 hPa 0,0 l/m 6,1 km/h (2 Bft) W-SW 247 16,6 C 26,4 C
30.06.2012 13:26 26,5 C 55 % 1014,1 hPa 0,0 l/m 2,5 km/h (1 Bft) S 180 16,7 C 26,5 C
30.06.2012 13:31 26,6 C 54 % 1014,1 hPa 0,0 l/m 7,6 km/h (2 Bft) W-SW 247 16,5 C 26,6 C
30.06.2012 13:36 26,7 C 54 % 1014,0 hPa 0,0 l/m 6,1 km/h (2 Bft) W-NW 292 16,6 C 26,7 C
30.06.2012 13:41 26,9 C 53 % 1014,1 hPa 0,0 l/m 2,5 km/h (1 Bft) W-SW 247 16,5 C 26,9 C
30.06.2012 13:46 26,9 C 52 % 1013,9 hPa 0,0 l/m 2,2 km/h (1 Bft) W-SW 247 16,2 C 26,9 C
30.06.2012 13:51 26,9 C 52 % 1014,0 hPa 0,0 l/m 3,6 km/h (1 Bft) S-SO 157 16,2 C 26,9 C
30.06.2012 13:56 27,1 C 52 % 1013,9 hPa 0,0 l/m 3,2 km/h (1 Bft) W 270 16,4 C 27,1 C
30.06.2012 14:01 27,2 C 52 % 1013,9 hPa 0,0 l/m 8,3 km/h (2 Bft) W 270 16,5 C 27,2 C
30.06.2012 14:06 27,3 C 52 % 1013,9 hPa 0,0 l/m 8,6 km/h (2 Bft) S-SW 202 16,6 C 27,3 C
30.06.2012 14:11 27,4 C 51 % 1013,9 hPa 0,0 l/m 6,1 km/h (2 Bft) S 180 16,3 C 27,4 C
30.06.2012 14:16 27,4 C 51 % 1014,0 hPa 0,0 l/m 5,8 km/h (2 Bft) NW 315 16,3 C 27,4 C
30.06.2012 14:21 27,5 C 51 % 1014,0 hPa 0,0 l/m 5,0 km/h (1 Bft) W-SW 247 16,4 C 27,5 C
30.06.2012 14:26 27,6 C 50 % 1013,9 hPa 0,0 l/m 7,2 km/h (2 Bft) S 180 16,2 C 27,6 C
30.06.2012 14:31 27,7 C 49 % 1013,9 hPa 0,0 l/m 3,6 km/h (1 Bft) NW 315 16,0 C 27,7 C
30.06.2012 14:36 27,6 C 49 % 1013,8 hPa 0,0 l/m 8,6 km/h (2 Bft) W 270 15,9 C 27,6 C
30.06.2012 14:41 27,6 C 47 % 1013,9 hPa 0,0 l/m 5,4 km/h (1 Bft) W 270 15,3 C 27,6 C
30.06.2012 14:46 27,6 C 48 % 1013,9 hPa 0,0 l/m 4,0 km/h (1 Bft) S-SO 157 15,6 C 27,6 C
30.06.2012 14:51 27,6 C 47 % 1013,9 hPa 0,0 l/m 4,3 km/h (1 Bft) SO 135 15,3 C 27,6 C
30.06.2012 14:56 27,7 C 48 % 1013,9 hPa 0,0 l/m 3,2 km/h (1 Bft) W-NW 292 15,7 C 27,7 C
30.06.2012 15:01 27,6 C 46 % 1013,9 hPa 0,0 l/m 5,8 km/h (2 Bft) W 270 14,9 C 27,6 C
30.06.2012 15:06 27,6 C 46 % 1013,8 hPa 0,0 l/m 3,6 km/h (1 Bft) W 270 14,9 C 27,6 C
30.06.2012 15:11 27,8 C 46 % 1013,8 hPa 0,0 l/m 7,9 km/h (2 Bft) W 270 15,1 C 27,8 C
30.06.2012 15:16 27,8 C 47 % 1013,8 hPa 0,0 l/m 2,5 km/h (1 Bft) W-NW 292 15,4 C 27,8 C
30.06.2012 15:21 28,0 C 47 % 1013,7 hPa 0,0 l/m 6,1 km/h (2 Bft) W-SW 247 15,6 C 28,0 C
30.06.2012 15:26 28,1 C 46 % 1013,6 hPa 0,0 l/m 4,7 km/h (1 Bft) S-SO 157 15,4 C 28,1 C
30.06.2012 15:31 28,1 C 47 % 1013,7 hPa 0,0 l/m 4,3 km/h (1 Bft) NW 315 15,7 C 28,1 C
30.06.2012 15:36 28,0 C 47 % 1013,6 hPa 0,0 l/m 4,7 km/h (1 Bft) S 180 15,6 C 28,0 C
30.06.2012 15:41 28,2 C 46 % 1013,7 hPa 0,0 l/m 5,4 km/h (1 Bft) S-SW 202 15,5 C 28,2 C
30.06.2012 15:46 28,3 C 45 % 1013,7 hPa 0,0 l/m 6,1 km/h (2 Bft) W-NW 292 15,2 C 28,3 C
30.06.2012 15:51 28,3 C 44 % 1013,7 hPa 0,0 l/m 5,4 km/h (1 Bft) W-SW 247 14,9 C 28,3 C
30.06.2012 15:56 28,4 C 45 % 1013,7 hPa 0,0 l/m 7,2 km/h (2 Bft) S-SW 202 15,3 C 28,4 C
30.06.2012 16:01 28,6 C 44 % 1013,7 hPa 0,0 l/m 6,8 km/h (2 Bft) W-NW 292 15,1 C 28,6 C
30.06.2012 16:06 28,4 C 44 % 1013,6 hPa 0,0 l/m 9,7 km/h (2 Bft) S 180 14,9 C 28,4 C
30.06.2012 16:11 28,4 C 43 % 1013,5 hPa 0,0 l/m 2,9 km/h (1 Bft) NW 315 14,6 C 28,4 C
30.06.2012 16:16 28,6 C 43 % 1013,5 hPa 0,0 l/m 2,9 km/h (1 Bft) S 180 14,8 C 28,6 C
30.06.2012 16:21 28,7 C 42 % 1013,6 hPa 0,0 l/m 3,6 km/h (1 Bft) W-NW 292 14,5 C 28,7 C
30.06.2012 16:26 28,8 C 43 % 1013,5 hPa 0,0 l/m 3,2 km/h (1 Bft) W 270 15,0 C 28,8 C
30.06.2012 16:31 28,9 C 44 % 1013,6 hPa 0,0 l/m 6,5 km/h (2 Bft) S-SW 202 15,4 C 28,9 C
30.06.2012 16:36 29,1 C 43 % 1013,7 hPa 0,0 l/m 2,9 km/h (1 Bft) W 270 15,2 C 29,1 C
30.06.2012 16:41 29,1 C 43 % 1013,7 hPa 0,0 l/m 4,0 km/h (1 Bft) W 270 15,2 C 29,1 C
30.06.2012 16:46 29,2 C 43 % 1013,7 hPa 0,0 l/m 5,0 km/h (1 Bft) W-SW 247 15,3 C 29,2 C
30.06.2012 16:51 29,2 C 43 % 1013,7 hPa 0,0 l/m 2,5 km/h (1 Bft) W 270 15,3 C 29,2 C
30.06.2012 16:56 29,1 C 42 % 1013,6 hPa 0,0 l/m 2,2 km/h (1 Bft) W-SW 247 14,9 C 29,1 C
30.06.2012 17:01 29,1 C 43 % 1013,6 hPa 0,0 l/m 3,6 km/h (1 Bft) W-NW 292 15,2 C 29,1 C
30.06.2012 17:06 29,2 C 43 % 1013,6 hPa 0,0 l/m 5,0 km/h (1 Bft) W-NW 292 15,3 C 29,2 C
30.06.2012 17:11 29,2 C 43 % 1013,5 hPa 0,0 l/m 13,3 km/h (3 Bft) SW 225 15,3 C 29,2 C
30.06.2012 17:16 29,2 C 42 % 1013,5 hPa 0,0 l/m 11,2 km/h (2 Bft) W-SW 247 14,9 C 29,2 C
30.06.2012 17:21 29,1 C 43 % 1013,5 hPa 0,0 l/m 5,4 km/h (1 Bft) S-SW 202 15,2 C 29,1 C
30.06.2012 17:26 29,1 C 43 % 1013,4 hPa 0,0 l/m 5,4 km/h (1 Bft) S-SW 202 15,2 C 29,1 C
30.06.2012 17:31 29,0 C 43 % 1013,4 hPa 0,0 l/m 1,4 km/h (1 Bft) W 270 15,1 C 29,0 C
30.06.2012 17:36 28,9 C 43 % 1013,3 hPa 0,0 l/m 4,7 km/h (1 Bft) W 270 15,0 C 28,9 C
30.06.2012 17:41 28,8 C 44 % 1013,3 hPa 0,0 l/m 2,5 km/h (1 Bft) NW 315 15,3 C 28,8 C
30.06.2012 17:46 28,6 C 44 % 1013,1 hPa 0,0 l/m 4,3 km/h (1 Bft) W-NW 292 15,1 C 28,6 C
30.06.2012 17:51 28,5 C 44 % 1013,3 hPa 0,0 l/m 6,8 km/h (2 Bft) NW 315 15,0 C 28,5 C
30.06.2012 17:56 28,4 C 44 % 1013,4 hPa 0,0 l/m 4,0 km/h (1 Bft) W 270 14,9 C 28,4 C
30.06.2012 18:01 28,4 C 45 % 1013,4 hPa 0,0 l/m 4,0 km/h (1 Bft) W 270 15,3 C 28,4 C
30.06.2012 18:06 28,6 C 45 % 1013,4 hPa 0,0 l/m 4,3 km/h (1 Bft) W 270 15,5 C 28,6 C
30.06.2012 18:11 28,6 C 45 % 1013,3 hPa 0,0 l/m 1,8 km/h (1 Bft) N-NW 337 15,5 C 28,6 C
30.06.2012 18:16 28,6 C 44 % 1013,2 hPa 0,0 l/m 2,5 km/h (1 Bft) N 360 15,1 C 28,6 C
30.06.2012 18:21 28,4 C 45 % 1013,1 hPa 0,0 l/m 3,6 km/h (1 Bft) W-NW 292 15,3 C 28,4 C
30.06.2012 18:26 28,5 C 46 % 1013,1 hPa 0,0 l/m 3,6 km/h (1 Bft) W-NW 292 15,7 C 28,5 C
30.06.2012 18:31 28,6 C 44 % 1013,1 hPa 0,0 l/m 4,0 km/h (1 Bft) NW 315 15,1 C 28,6 C
30.06.2012 18:36 28,6 C 45 % 1013,1 hPa 0,0 l/m 3,6 km/h (1 Bft) W-NW 292 15,5 C 28,6 C
30.06.2012 18:41 28,6 C 44 % 1013,1 hPa 0,0 l/m 4,0 km/h (1 Bft) N-NO 22 15,1 C 28,6 C
30.06.2012 18:46 28,1 C 44 % 1013,2 hPa 0,0 l/m 3,2 km/h (1 Bft) NO 45 14,7 C 28,1 C
30.06.2012 18:51 27,8 C 45 % 1013,2 hPa 0,0 l/m 0,0 km/h (0 Bft) NO 45 14,8 C 27,8 C
30.06.2012 18:56 27,5 C 46 % 1013,3 hPa 0,0 l/m 2,5 km/h (1 Bft) N 360 14,8 C 27,5 C
30.06.2012 19:01 27,2 C 46 % 1013,2 hPa 0,0 l/m 0,0 km/h (0 Bft) N-NO 22 14,6 C 27,2 C
30.06.2012 19:06 27,0 C 48 % 1013,3 hPa 0,0 l/m 3,2 km/h (1 Bft) NO 45 15,0 C 27,0 C
30.06.2012 19:11 26,9 C 49 % 1013,3 hPa 0,0 l/m 2,9 km/h (1 Bft) N-NO 22 15,3 C 26,9 C
30.06.2012 19:16 26,6 C 49 % 1013,3 hPa 0,0 l/m 4,0 km/h (1 Bft) N-NW 337 15,0 C 26,6 C
30.06.2012 19:21 26,4 C 49 % 1013,2 hPa 0,0 l/m 2,2 km/h (1 Bft) W-NW 292 14,8 C 26,4 C
30.06.2012 19:26 26,3 C 50 % 1013,3 hPa 0,0 l/m 1,8 km/h (1 Bft) W 270 15,0 C 26,3 C
30.06.2012 19:31 26,2 C 51 % 1013,2 hPa 0,0 l/m 1,4 km/h (1 Bft) N 360 15,2 C 26,2 C
30.06.2012 19:36 25,9 C 51 % 1013,2 hPa 0,0 l/m 0,0 km/h (0 Bft) N 360 15,0 C 25,9 C
30.06.2012 19:41 25,9 C 51 % 1013,2 hPa 0,0 l/m 2,9 km/h (1 Bft) N-NO 22 15,0 C 25,9 C
30.06.2012 19:46 25,6 C 51 % 1013,2 hPa 0,0 l/m 2,9 km/h (1 Bft) NO 45 14,7 C 25,6 C
30.06.2012 19:51 25,6 C 51 % 1013,1 hPa 0,0 l/m 3,2 km/h (1 Bft) NO 45 14,7 C 25,6 C
30.06.2012 19:56 25,5 C 52 % 1013,3 hPa 0,0 l/m 0,0 km/h (0 Bft) O-NO 67 14,9 C 25,5 C
30.06.2012 20:01 25,5 C 52 % 1013,3 hPa 0,0 l/m 0,0 km/h (0 Bft) O-NO 67 14,9 C 25,5 C
30.06.2012 20:06 25,4 C 52 % 1013,4 hPa 0,0 l/m 0,0 km/h (0 Bft) O-NO 67 14,8 C 25,4 C
30.06.2012 20:11 25,4 C 52 % 1013,4 hPa 0,0 l/m 0,0 km/h (0 Bft) O-NO 67 14,8 C 25,4 C
30.06.2012 20:16 25,4 C 52 % 1013,4 hPa 0,0 l/m 2,9 km/h (1 Bft) NO 45 14,8 C 25,4 C
30.06.2012 20:21 25,4 C 52 % 1013,4 hPa 0,0 l/m 2,5 km/h (1 Bft) O 90 14,8 C 25,4 C
30.06.2012 20:26 25,3 C 53 % 1013,4 hPa 0,0 l/m 0,0 km/h (0 Bft) O 90 15,0 C 25,3 C
30.06.2012 20:31 25,3 C 53 % 1013,4 hPa 0,0 l/m 1,1 km/h (1 Bft) O-NO 67 15,0 C 25,3 C
30.06.2012 20:36 25,2 C 53 % 1013,3 hPa 0,0 l/m 1,4 km/h (1 Bft) O-NO 67 14,9 C 25,2 C
30.06.2012 20:41 25,2 C 53 % 1013,2 hPa 0,0 l/m 2,5 km/h (1 Bft) O-NO 67 14,9 C 25,2 C
30.06.2012 20:46 25,1 C 54 % 1013,1 hPa 0,0 l/m 3,2 km/h (1 Bft) O-SO 112 15,1 C 25,1 C
30.06.2012 20:51 25,1 C 55 % 1013,2 hPa 0,0 l/m 0,0 km/h (0 Bft) O 90 15,4 C 25,1 C
30.06.2012 20:56 24,9 C 56 % 1013,1 hPa 0,0 l/m 1,4 km/h (1 Bft) O-NO 67 15,5 C 24,9 C
30.06.2012 21:01 24,9 C 56 % 1013,0 hPa 0,0 l/m 1,4 km/h (1 Bft) O-NO 67 15,5 C 24,9 C
30.06.2012 21:06 24,8 C 56 % 1012,9 hPa 0,0 l/m 0,0 km/h (0 Bft) O 90 15,4 C 24,8 C
30.06.2012 21:11 24,7 C 56 % 1012,8 hPa 0,0 l/m 1,4 km/h (1 Bft) O 90 15,3 C 24,7 C
30.06.2012 21:16 24,5 C 57 % 1013,1 hPa 0,0 l/m 0,0 km/h (0 Bft) O-NO 67 15,4 C 24,5 C
30.06.2012 21:21 24,4 C 57 % 1012,9 hPa 0,0 l/m 2,5 km/h (1 Bft) O 90 15,3 C 24,4 C
30.06.2012 21:26 24,3 C 56 % 1012,9 hPa 0,0 l/m 2,5 km/h (1 Bft) O 90 14,9 C 24,3 C
30.06.2012 21:31 24,2 C 56 % 1012,9 hPa 0,0 l/m 0,0 km/h (0 Bft) O-NO 67 14,9 C 24,2 C
30.06.2012 21:36 24,1 C 56 % 1012,7 hPa 0,0 l/m 1,4 km/h (1 Bft) O-NO 67 14,8 C 24,1 C
30.06.2012 21:41 24,1 C 56 % 1012,5 hPa 0,0 l/m 2,9 km/h (1 Bft) O-NO 67 14,8 C 24,1 C
30.06.2012 21:46 23,9 C 56 % 1012,6 hPa 0,0 l/m 2,9 km/h (1 Bft) O-NO 67 14,6 C 23,9 C
30.06.2012 21:51 23,9 C 56 % 1012,6 hPa 0,0 l/m 4,7 km/h (1 Bft) O-NO 67 14,6 C 23,9 C
30.06.2012 21:56 23,8 C 56 % 1012,6 hPa 0,0 l/m 4,0 km/h (1 Bft) O-NO 67 14,5 C 23,8 C
30.06.2012 22:01 23,6 C 57 % 1012,6 hPa 0,0 l/m 2,2 km/h (1 Bft) O-NO 67 14,6 C 23,6 C
30.06.2012 22:06 23,5 C 58 % 1012,6 hPa 0,0 l/m 4,7 km/h (1 Bft) O 90 14,7 C 23,5 C
30.06.2012 22:11 23,4 C 58 % 1012,5 hPa 0,0 l/m 2,5 km/h (1 Bft) O-NO 67 14,7 C 23,4 C
30.06.2012 22:16 23,3 C 58 % 1012,5 hPa 0,0 l/m 2,9 km/h (1 Bft) O 90 14,6 C 23,3 C
30.06.2012 22:21 23,1 C 59 % 1012,4 hPa 0,0 l/m 4,0 km/h (1 Bft) O-NO 67 14,6 C 23,1 C
30.06.2012 22:26 23,1 C 59 % 1012,4 hPa 0,0 l/m 3,2 km/h (1 Bft) O-NO 67 14,6 C 23,1 C
30.06.2012 22:31 22,9 C 59 % 1012,4 hPa 0,0 l/m 3,2 km/h (1 Bft) O-NO 67 14,5 C 22,9 C
30.06.2012 22:36 22,9 C 60 % 1012,4 hPa 0,0 l/m 1,8 km/h (1 Bft) O-SO 112 14,7 C 22,9 C
30.06.2012 22:41 22,8 C 60 % 1012,4 hPa 0,0 l/m 4,0 km/h (1 Bft) O-NO 67 14,6 C 22,8 C
30.06.2012 22:46 22,8 C 60 % 1012,4 hPa 0,0 l/m 2,5 km/h (1 Bft) O-NO 67 14,6 C 22,8 C
30.06.2012 22:51 22,7 C 61 % 1012,4 hPa 0,0 l/m 2,2 km/h (1 Bft) O-NO 67 14,8 C 22,7 C
30.06.2012 22:56 22,6 C 61 % 1012,4 hPa 0,0 l/m 0,0 km/h (0 Bft) O-NO 67 14,7 C 22,6 C
30.06.2012 23:01 22,6 C 61 % 1012,5 hPa 0,0 l/m 1,1 km/h (1 Bft) NO 45 14,7 C 22,6 C
30.06.2012 23:06 22,6 C 61 % 1012,5 hPa 0,0 l/m 0,0 km/h (0 Bft) NO 45 14,7 C 22,6 C
30.06.2012 23:11 22,6 C 61 % 1012,7 hPa 0,0 l/m 0,0 km/h (0 Bft) N-NO 22 14,7 C 22,6 C
30.06.2012 23:16 22,6 C 61 % 1012,6 hPa 0,0 l/m 0,0 km/h (0 Bft) N-NO 22 14,7 C 22,6 C
30.06.2012 23:21 22,6 C 62 % 1012,5 hPa 0,0 l/m 0,0 km/h (0 Bft) NO 45 14,9 C 22,6 C
30.06.2012 23:26 22,5 C 62 % 1012,6 hPa 0,0 l/m 0,0 km/h (0 Bft) O-NO 67 14,8 C 22,5 C
30.06.2012 23:31 22,6 C 61 % 1012,3 hPa 0,0 l/m 2,2 km/h (1 Bft) O 90 14,7 C 22,6 C
30.06.2012 23:36 22,5 C 61 % 1012,4 hPa 0,0 l/m 0,0 km/h (0 Bft) O-NO 67 14,6 C 22,5 C
30.06.2012 23:41 22,5 C 61 % 1012,0 hPa 0,0 l/m 4,3 km/h (1 Bft) O 90 14,6 C 22,5 C
30.06.2012 23:46 22,4 C 62 % 1011,9 hPa 0,0 l/m 4,0 km/h (1 Bft) O 90 14,8 C 22,4 C
30.06.2012 23:51 22,3 C 62 % 1011,9 hPa 0,0 l/m 2,5 km/h (1 Bft) SO 135 14,7 C 22,3 C
30.06.2012 23:56 22,2 C 63 % 1011,8 hPa 0,0 l/m 1,1 km/h (1 Bft) O-NO 67 14,8 C 22,2 C
_ Min-Zeit 06:06 16:21 00:01 - 00:01 - - 22:31 06:06
Minimum _ 18,8 C 42 % 1010,6 hPa - 0,0 km/h (0 Bft) - - 14,5 C 18,8 C
_ Max-Zeit 16:46 02:11 10:06 01:31 08:46 - - 10:51 16:46
Maximum _ 29,2 C 87 % 1014,6 hPa 0,5 l/m 14,4 km/h
W (3 Bft)
- - 18,7 C 29,2 C
Durchschnitt _ 23,4 C 67 % 1013,0 hPa #0,5 l/m 3,6 km/h (1 Bft) W - 16,4 C 23,4 C
(c) by David Heller